CheckWX is a tool to help pilots better visualize weather data.  It is not intended as a substitute for an official pre-flight weather briefing.

11:23:34 UTC

LTAJ METAR
Gaziantep International Airport
Gaziantep, Turkey
Current

2 hours ago

LTAJ 060950Z 03008KT 350V060 9999 FEW040 BKN100 18/07 Q1014 NOSIG RMK RWY10 02008KT 330V070
Observed
Apr-6 @ 09:50 UTC
Wind
  • 030° at 8 KTS
Visibility
10,000+ meters
Flight Rules
VFR
Cloud Levels
  • Few at 4,000' AGL
  • Broken at 10,000' AGL
Temperature
18°C / 64°F
Dewpoint
C / 45°F
Humidity
49%
Altimeter
29.94" Hg
Pressure
1013.92 hPa
Previous

2 hours ago

LTAJ 060920Z 02006KT 9999 FEW040 BKN100 18/07 Q1014 NOSIG RMK RWY10 01008KT 340V040
Observed
Apr-6 @ 09:20 UTC
Wind
  • 020° at 6 KTS
Visibility
10,000+ meters
Flight Rules
VFR
Cloud Levels
  • Few at 4,000' AGL
  • Broken at 10,000' AGL
Temperature
18°C / 64°F
Dewpoint
C / 45°F
Humidity
49%
Altimeter
29.94" Hg
Pressure
1013.92 hPa
Previous

3 hours ago

LTAJ 060850Z 01005KT 340V050 9999 FEW040 BKN100 17/07 Q1015 NOSIG RMK RWY10 02009KT 360V060
Observed
Apr-6 @ 08:50 UTC
Wind
  • 010° at 5 KTS
Visibility
10,000+ meters
Flight Rules
VFR
Cloud Levels
  • Few at 4,000' AGL
  • Broken at 10,000' AGL
Temperature
17°C / 63°F
Dewpoint
C / 45°F
Humidity
52%
Altimeter
29.97" Hg
Pressure
1014.92 hPa